Climatologie pour Saint-Brevin les Pins
Jour • Résumé pour juin 2, 2017 Système :  Métrique    Anglais   Mixte
« - 1 jour
+ 1 jour »
Jour Semaine Mois Année Personnalisé
  Maximum : Minimum : Moyenne :
Température sous abri : 24.2 °C 13.4 °C 19 °C
Point de rosée : 19.5 °C 13.0 °C 15.9 °C
Humidité : 98 % 61 % 83 %
Vitesse du vent : 19.3 km/h 0.0 km/h 4.5 km/h
Rafale : 25.7 km/h - -
Direction :- - WNW
Pression : 1017.5 hPa 1015.5 hPa -
Précipitations : 0.0 mm    
Historical Graphs
 
 
Tableau de données pour juin 2, 2017
Heure Tempé Pt rosée Pression Vent Vitesse Rafale Humidité Taux pluie (/hr) Soleil
00:00 16.9 °C 15.2 °C 1017.5 hPa Calm   1.6 km/h 90 % 0.0 mm 0 W/m2
00:10 16.7 °C 15.2 °C 1017.5 hPa Calm     91 % 0.0 mm 0 W/m2
00:15 16.5 °C 15.2 °C 1017.5 hPa Calm     92 % 0.0 mm 0 W/m2
00:20 16.5 °C 15.2 °C 1017.2 hPa Calm     92 % 0.0 mm 0 W/m2
00:25 16.4 °C 15.1 °C 1017.2 hPa Calm     92 % 0.0 mm 0 W/m2
00:30 16.5 °C 15.2 °C 1017.5 hPa Calm     92 % 0.0 mm 0 W/m2
00:35 16.5 °C 15.2 °C 1017.2 hPa Calm   1.6 km/h 92 % 0.0 mm 0 W/m2
00:40 16.4 °C 15.1 °C 1017.2 hPa Calm   1.6 km/h 92 % 0.0 mm 0 W/m2
00:45 16.4 °C 15.3 °C 1017.2 hPa Calm   1.6 km/h 93 % 0.0 mm 0 W/m2
00:50 16.4 °C 15.3 °C 1017.2 hPa Calm     93 % 0.0 mm 0 W/m2
00:55 16.4 °C 15.3 °C 1017.2 hPa Calm     93 % 0.0 mm 0 W/m2
01:00 16.5 °C 15.4 °C 1017.2 hPa Calm     93 % 0.0 mm 0 W/m2
01:05 16.4 °C 15.1 °C 1017.2 hPa Calm     92 % 0.0 mm 0 W/m2
01:10 16.4 °C 15.3 °C 1017.2 hPa Calm     93 % 0.0 mm 0 W/m2
01:15 16.4 °C 15.3 °C 1017.2 hPa Calm     93 % 0.0 mm 0 W/m2
01:25 16.4 °C 15.3 °C 1017.2 hPa Calm   1.6 km/h 93 % 0.0 mm 0 W/m2
01:30 16.4 °C 15.3 °C 1017.2 hPa Calm   4.8 km/h 93 % 0.0 mm 0 W/m2
01:35 16.3 °C 15.1 °C 1017.2 hPa WNW 4.8 km/h 6.4 km/h 93 % 0.0 mm 0 W/m2
01:40 16.3 °C 15.1 °C 1017.2 hPa Calm   6.4 km/h 93 % 0.0 mm 0 W/m2
01:45 16.3 °C 15.1 °C 1016.8 hPa Calm   4.8 km/h 93 % 0.0 mm 0 W/m2
01:50 16.2 °C 15.0 °C 1016.8 hPa Calm   3.2 km/h 93 % 0.0 mm 0 W/m2
01:55 16.1 °C 15.0 °C 1017.2 hPa Calm   1.6 km/h 93 % 0.0 mm 0 W/m2
02:00 16.1 °C 15.0 °C 1016.8 hPa Calm   1.6 km/h 93 % 0.0 mm 0 W/m2
02:05 16.0 °C 14.9 °C 1016.8 hPa WNW 1.6 km/h 6.4 km/h 93 % 0.0 mm 0 W/m2
02:10 15.9 °C 14.8 °C 1016.8 hPa WNW 1.6 km/h 6.4 km/h 93 % 0.0 mm 0 W/m2
02:15 15.8 °C 14.6 °C 1016.8 hPa NW 4.8 km/h 9.7 km/h 93 % 0.0 mm 0 W/m2
02:20 15.7 °C 14.7 °C 1016.8 hPa WNW 1.6 km/h 9.7 km/h 94 % 0.0 mm 0 W/m2
02:25 15.7 °C 14.7 °C 1016.8 hPa Calm   9.7 km/h 94 % 0.0 mm 0 W/m2
02:30 15.7 °C 14.7 °C 1016.8 hPa Calm   8.0 km/h 94 % 0.0 mm 0 W/m2
02:35 15.6 °C 14.6 °C 1016.5 hPa Calm   8.0 km/h 94 % 0.0 mm 0 W/m2
02:40 15.5 °C 14.5 °C 1016.5 hPa WNW 1.6 km/h 4.8 km/h 94 % 0.0 mm 0 W/m2
02:45 15.4 °C 14.5 °C 1016.5 hPa WNW 1.6 km/h 4.8 km/h 94 % 0.0 mm 0 W/m2
02:50 15.5 °C 14.5 °C 1016.5 hPa Calm   4.8 km/h 94 % 0.0 mm 0 W/m2
02:55 15.6 °C 14.6 °C 1016.5 hPa Calm   1.6 km/h 94 % 0.0 mm 0 W/m2
03:00 15.7 °C 14.7 °C 1016.5 hPa Calm   1.6 km/h 94 % 0.0 mm 0 W/m2
03:05 15.6 °C 14.6 °C 1016.5 hPa Calm     94 % 0.0 mm 0 W/m2
03:10 15.4 °C 14.4 °C 1016.5 hPa WNW 1.6 km/h 3.2 km/h 94 % 0.0 mm 0 W/m2
03:15 15.3 °C 14.3 °C 1016.5 hPa Calm   3.2 km/h 94 % 0.0 mm 0 W/m2
03:20 15.3 °C 14.3 °C 1016.5 hPa Calm   1.6 km/h 94 % 0.0 mm 0 W/m2
03:25 15.3 °C 14.5 °C 1016.5 hPa Calm   1.6 km/h 95 % 0.0 mm 0 W/m2
03:30 15.2 °C 14.3 °C 1016.5 hPa Calm     94 % 0.0 mm 0 W/m2
03:35 15.3 °C 14.3 °C 1016.1 hPa Calm     94 % 0.0 mm 0 W/m2
03:40 15.2 °C 14.3 °C 1016.1 hPa Calm     94 % 0.0 mm 0 W/m2
03:45 15.1 °C 14.3 °C 1016.1 hPa Calm     95 % 0.0 mm 0 W/m2
03:50 15.1 °C 14.3 °C 1016.1 hPa Calm     95 % 0.0 mm 0 W/m2
03:55 14.9 °C 14.2 °C 1016.1 hPa Calm     95 % 0.0 mm 0 W/m2
04:00 14.9 °C 14.1 °C 1016.1 hPa Calm     95 % 0.0 mm 0 W/m2
04:05 14.8 °C 14.0 °C 1016.1 hPa Calm     95 % 0.0 mm 0 W/m2
04:10 14.8 °C 14.0 °C 1016.1 hPa Calm     95 % 0.0 mm 0 W/m2
04:15 14.7 °C 13.9 °C 1016.1 hPa Calm     95 % 0.0 mm 0 W/m2
04:20 14.7 °C 13.9 °C 1016.1 hPa Calm     95 % 0.0 mm 0 W/m2
04:25 14.6 °C 13.9 °C 1016.1 hPa Calm     96 % 0.0 mm 0 W/m2
04:30 14.7 °C 14.0 °C 1016.1 hPa Calm     96 % 0.0 mm 0 W/m2
04:35 14.6 °C 14.0 °C 1016.1 hPa Calm     96 % 0.0 mm 0 W/m2
04:40 14.4 °C 13.8 °C 1016.1 hPa Calm     96 % 0.0 mm 0 W/m2
04:45 14.4 °C 13.8 °C 1016.1 hPa Calm   4.8 km/h 96 % 0.0 mm 0 W/m2
04:50 14.4 °C 13.8 °C 1016.1 hPa Calm   4.8 km/h 96 % 0.0 mm 0 W/m2
04:55 14.3 °C 13.7 °C 1016.1 hPa Calm   3.2 km/h 96 % 0.0 mm 0 W/m2
05:00 14.3 °C 13.7 °C 1016.1 hPa Calm   4.8 km/h 96 % 0.0 mm 0 W/m2
05:05 14.3 °C 13.6 °C 1016.1 hPa Calm   4.8 km/h 96 % 0.0 mm 0 W/m2
05:10 14.5 °C 14.0 °C 1015.8 hPa Calm   4.8 km/h 97 % 0.0 mm 0 W/m2
05:20 14.4 °C 13.8 °C 1015.8 hPa Calm   1.6 km/h 96 % 0.0 mm 0 W/m2
05:25 14.7 °C 14.2 °C 1015.8 hPa Calm   1.6 km/h 97 % 0.0 mm 0 W/m2
05:30 14.6 °C 13.9 °C 1015.8 hPa Calm   1.6 km/h 96 % 0.0 mm 0 W/m2
05:35 14.4 °C 13.8 °C 1015.8 hPa Calm   1.6 km/h 96 % 0.0 mm 0 W/m2
05:40 14.4 °C 13.9 °C 1015.8 hPa Calm     97 % 0.0 mm 0 W/m2
05:45 14.4 °C 14.0 °C 1015.8 hPa Calm     97 % 0.0 mm 0 W/m2
05:50 14.6 °C 14.1 °C 1015.8 hPa Calm     97 % 0.0 mm 0 W/m2
05:55 14.4 °C 14.0 °C 1015.8 hPa Calm     97 % 0.0 mm 0 W/m2
06:00 14.3 °C 13.7 °C 1015.8 hPa Calm     96 % 0.0 mm 0 W/m2
06:05 14.2 °C 13.8 °C 1015.8 hPa Calm     97 % 0.0 mm 0 W/m2
06:10 14.2 °C 13.7 °C 1015.5 hPa Calm     97 % 0.0 mm 0 W/m2
06:15 14.0 °C 13.4 °C 1015.5 hPa Calm     96 % 0.0 mm 0 W/m2
06:25 13.9 °C 13.5 °C 1015.5 hPa Calm     97 % 0.0 mm 0 W/m2
06:30 14.2 °C 13.7 °C 1015.5 hPa Calm     97 % 0.0 mm 5 W/m2
06:35 14.1 °C 13.6 °C 1015.5 hPa Calm     97 % 0.0 mm 9 W/m2
06:50 13.8 °C 13.4 °C 1015.8 hPa Calm     97 % 0.0 mm 16 W/m2
06:55 13.8 °C 13.3 °C 1015.8 hPa Calm     97 % 0.0 mm 16 W/m2
07:00 13.7 °C 13.3 °C 1015.8 hPa Calm     97 % 0.0 mm 16 W/m2
07:05 13.7 °C 13.2 °C 1015.8 hPa Calm     97 % 0.0 mm 16 W/m2
07:10 13.6 °C 13.1 °C 1015.8 hPa Calm     97 % 0.0 mm 18 W/m2
07:15 13.4 °C 13.0 °C 1016.1 hPa Calm     97 % 0.0 mm 19 W/m2
07:20 13.6 °C 13.1 °C 1016.1 hPa Calm     97 % 0.0 mm 21 W/m2
07:25 13.7 °C 13.3 °C 1016.1 hPa Calm     97 % 0.0 mm 25 W/m2
07:30 13.9 °C 13.6 °C 1016.1 hPa Calm     98 % 0.0 mm 26 W/m2
07:35 14.0 °C 13.7 °C 1016.1 hPa Calm     98 % 0.0 mm 28 W/m2
07:40 14.2 °C 13.9 °C 1016.1 hPa Calm     98 % 0.0 mm 33 W/m2
07:45 14.7 °C 14.4 °C 1016.1 hPa Calm     98 % 0.0 mm 35 W/m2
07:50 15.1 °C 14.8 °C 1016.1 hPa Calm   1.6 km/h 98 % 0.0 mm 37 W/m2
07:55 15.7 °C 15.4 °C 1016.1 hPa Calm   1.6 km/h 98 % 0.0 mm 200 W/m2
08:00 16.3 °C 16.0 °C 1016.1 hPa Calm     98 % 0.0 mm 216 W/m2
08:05 16.7 °C 16.4 °C 1016.1 hPa Calm     98 % 0.0 mm 229 W/m2
08:10 17.0 °C 16.7 °C 1016.1 hPa Calm     98 % 0.0 mm 243 W/m2
08:15 17.1 °C 16.8 °C 1016.1 hPa Calm     98 % 0.0 mm 260 W/m2
08:20 17.3 °C 17.0 °C 1016.1 hPa Calm   1.6 km/h 98 % 0.0 mm 274 W/m2
08:25 17.5 °C 17.2 °C 1016.5 hPa Calm   1.6 km/h 98 % 0.0 mm 292 W/m2
08:30 17.7 °C 17.2 °C 1016.5 hPa Calm   1.6 km/h 97 % 0.0 mm 306 W/m2
08:35 17.9 °C 17.5 °C 1016.5 hPa Calm   1.6 km/h 97 % 0.0 mm 322 W/m2
08:40 18.2 °C 17.6 °C 1016.5 hPa Calm     96 % 0.0 mm 336 W/m2
08:45 18.4 °C 17.6 °C 1016.5 hPa Calm   1.6 km/h 95 % 0.0 mm 350 W/m2
08:50 18.7 °C 17.7 °C 1016.5 hPa Calm   1.6 km/h 94 % 0.0 mm 366 W/m2
08:55 18.9 °C 17.8 °C 1016.5 hPa Calm   1.6 km/h 93 % 0.0 mm 383 W/m2
09:00 19.1 °C 17.6 °C 1016.5 hPa Calm   1.6 km/h 91 % 0.0 mm 399 W/m2
09:05 19.3 °C 17.4 °C 1016.5 hPa Calm     89 % 0.0 mm 417 W/m2
09:10 19.7 °C 17.8 °C 1016.5 hPa Calm     89 % 0.0 mm 415 W/m2
09:15 19.8 °C 17.2 °C 1016.5 hPa Calm     85 % 0.0 mm 424 W/m2
09:20 20.1 °C 17.5 °C 1016.5 hPa Calm     85 % 0.0 mm 429 W/m2
09:25 20.2 °C 17.4 °C 1016.5 hPa Calm     84 % 0.0 mm 464 W/m2
09:30 20.3 °C 17.7 °C 1016.5 hPa Calm     85 % 0.0 mm 490 W/m2
09:35 20.3 °C 17.0 °C 1016.5 hPa Calm     81 % 0.0 mm 501 W/m2
09:40 20.7 °C 17.3 °C 1016.8 hPa Calm     81 % 0.0 mm 501 W/m2
09:50 21.1 °C 17.3 °C 1016.5 hPa Calm     79 % 0.0 mm 555 W/m2
09:55 21.2 °C 17.6 °C 1016.5 hPa Calm     80 % 0.0 mm 570 W/m2
10:00 21.3 °C 17.5 °C 1016.5 hPa Calm     79 % 0.0 mm 510 W/m2
10:05 21.4 °C 17.8 °C 1016.5 hPa Calm     80 % 0.0 mm 573 W/m2
10:10 21.6 °C 17.6 °C 1016.5 hPa Calm     78 % 0.0 mm 538 W/m2
10:15 21.5 °C 17.1 °C 1016.5 hPa Calm     76 % 0.0 mm 580 W/m2
10:20 21.6 °C 17.2 °C 1016.8 hPa WSW 1.6 km/h 6.4 km/h 76 % 0.0 mm 643 W/m2
10:25 21.7 °C 17.3 °C 1016.5 hPa WSW 1.6 km/h 8.0 km/h 76 % 0.0 mm 605 W/m2
10:30 21.7 °C 17.3 °C 1016.5 hPa North 3.2 km/h 8.0 km/h 76 % 0.0 mm 566 W/m2
10:35 21.7 °C 17.0 °C 1016.8 hPa WNW 1.6 km/h 8.0 km/h 75 % 0.0 mm 531 W/m2
10:40 21.9 °C 17.7 °C 1016.8 hPa WSW 4.8 km/h 9.7 km/h 77 % 0.0 mm 585 W/m2
10:45 21.9 °C 17.5 °C 1016.8 hPa WSW 6.4 km/h 9.7 km/h 76 % 0.0 mm 652 W/m2
10:50 22.1 °C 18.4 °C 1016.8 hPa West 4.8 km/h 9.7 km/h 80 % 0.0 mm 684 W/m2
10:55 22.2 °C 18.4 °C 1016.5 hPa WSW 4.8 km/h 11.3 km/h 79 % 0.0 mm 691 W/m2
11:00 21.9 °C 17.9 °C 1016.8 hPa WSW 9.7 km/h 11.3 km/h 78 % 0.0 mm 715 W/m2
11:05 21.6 °C 17.8 °C 1016.8 hPa WSW 12.9 km/h 12.9 km/h 79 % 0.0 mm 740 W/m2
11:10 21.3 °C 17.7 °C 1016.8 hPa WNW 6.4 km/h 14.5 km/h 80 % 0.0 mm 759 W/m2
11:15 21.8 °C 18.0 °C 1016.8 hPa West 6.4 km/h 14.5 km/h 79 % 0.0 mm 687 W/m2
11:20 21.6 °C 18.0 °C 1016.8 hPa West 12.9 km/h 17.7 km/h 80 % 0.0 mm 721 W/m2
11:25 21.0 °C 17.6 °C 1016.8 hPa SW 14.5 km/h 19.3 km/h 81 % 0.0 mm 714 W/m2
11:35 20.8 °C 17.6 °C 1016.8 hPa West 9.7 km/h 22.5 km/h 82 % 0.0 mm 722 W/m2
11:40 21.1 °C 17.9 °C 1017.2 hPa NNW 9.7 km/h 22.5 km/h 82 % 0.0 mm 696 W/m2
11:45 21.2 °C 17.6 °C 1017.2 hPa West 17.7 km/h 22.5 km/h 80 % 0.0 mm 777 W/m2
11:50 21.3 °C 17.9 °C 1017.2 hPa SW 11.3 km/h 20.9 km/h 81 % 0.0 mm 759 W/m2
11:55 21.3 °C 17.9 °C 1017.2 hPa West 6.4 km/h 20.9 km/h 81 % 0.0 mm 838 W/m2
12:05 22.1 °C 19.5 °C 1017.2 hPa WNW 6.4 km/h 17.7 km/h 85 % 0.0 mm 810 W/m2
12:10 22.1 °C 18.4 °C 1017.2 hPa WSW 8.0 km/h 14.5 km/h 80 % 0.0 mm 810 W/m2
12:15 22.3 °C 18.7 °C 1017.2 hPa West 4.8 km/h 17.7 km/h 80 % 0.0 mm 812 W/m2
12:20 22.2 °C 18.4 °C 1017.2 hPa WNW 9.7 km/h 17.7 km/h 79 % 0.0 mm 847 W/m2
12:25 21.8 °C 18.2 °C 1017.2 hPa West 11.3 km/h 16.1 km/h 80 % 0.0 mm 865 W/m2
12:30 21.8 °C 17.6 °C 1017.2 hPa WSW 12.9 km/h 20.9 km/h 77 % 0.0 mm 840 W/m2
12:35 21.8 °C 18.2 °C 1017.2 hPa West 11.3 km/h 20.9 km/h 80 % 0.0 mm 823 W/m2
12:40 21.9 °C 18.1 °C 1017.2 hPa West 6.4 km/h 17.7 km/h 79 % 0.0 mm 854 W/m2
12:45 22.2 °C 18.4 °C 1017.2 hPa WNW 6.4 km/h 17.7 km/h 79 % 0.0 mm 858 W/m2
12:50 22.7 °C 18.4 °C 1017.2 hPa WSW 4.8 km/h 12.9 km/h 77 % 0.0 mm 886 W/m2
12:55 22.9 °C 18.0 °C 1017.2 hPa West 8.0 km/h 12.9 km/h 74 % 0.0 mm 914 W/m2
13:00 22.8 °C 18.2 °C 1017.2 hPa West 4.8 km/h 14.5 km/h 75 % 0.0 mm 821 W/m2
13:05 22.8 °C 18.0 °C 1017.2 hPa West 8.0 km/h 14.5 km/h 74 % 0.0 mm 902 W/m2
13:10 22.9 °C 18.3 °C 1017.2 hPa West 11.3 km/h 14.5 km/h 75 % 0.0 mm 909 W/m2
13:15 22.7 °C 17.8 °C 1016.8 hPa West 16.1 km/h 16.1 km/h 74 % 0.0 mm 916 W/m2
13:20 22.6 °C 17.9 °C 1016.8 hPa West 1.6 km/h 16.1 km/h 75 % 0.0 mm 919 W/m2
13:25 22.4 °C 17.5 °C 1017.2 hPa WSW 16.1 km/h 17.7 km/h 74 % 0.0 mm 879 W/m2
13:30 22.0 °C 17.4 °C 1016.8 hPa WSW 9.7 km/h 22.5 km/h 75 % 0.0 mm 953 W/m2
13:35 22.7 °C 17.2 °C 1017.2 hPa WSW 8.0 km/h 22.5 km/h 71 % 0.0 mm 940 W/m2
13:40 23.1 °C 16.8 °C 1016.8 hPa WSW 12.9 km/h 19.3 km/h 68 % 0.0 mm 601 W/m2
13:45 22.8 °C 16.8 °C 1017.2 hPa WSW 9.7 km/h 19.3 km/h 69 % 0.0 mm 851 W/m2
13:50 23.4 °C 17.4 °C 1016.8 hPa WNW 4.8 km/h 19.3 km/h 69 % 0.0 mm 874 W/m2
14:00 22.9 °C 17.1 °C 1016.8 hPa West 11.3 km/h 19.3 km/h 70 % 0.0 mm 928 W/m2
14:05 23.3 °C 17.1 °C 1016.8 hPa WNW 8.0 km/h 19.3 km/h 68 % 0.0 mm 795 W/m2
14:10 22.9 °C 16.7 °C 1016.8 hPa WNW 9.7 km/h 19.3 km/h 68 % 0.0 mm 926 W/m2
14:15 23.3 °C 16.8 °C 1016.8 hPa West 9.7 km/h 19.3 km/h 67 % 0.0 mm 930 W/m2
14:20 23.1 °C 16.2 °C 1016.8 hPa WNW 19.3 km/h 20.9 km/h 65 % 0.0 mm 930 W/m2
14:25 23.2 °C 16.3 °C 1016.8 hPa WSW 3.2 km/h 20.9 km/h 65 % 0.0 mm 893 W/m2
14:30 23.1 °C 15.9 °C 1016.8 hPa WSW 11.3 km/h 19.3 km/h 64 % 0.0 mm 896 W/m2
14:35 23.5 °C 16.0 °C 1016.8 hPa WNW 8.0 km/h 19.3 km/h 63 % 0.0 mm 874 W/m2
14:40 23.3 °C 15.9 °C 1016.8 hPa WSW 4.8 km/h 19.3 km/h 63 % 0.0 mm 835 W/m2
14:45 23.2 °C 15.5 °C 1016.8 hPa WSW 8.0 km/h 17.7 km/h 62 % 0.0 mm 619 W/m2
14:50 22.7 °C 16.0 °C 1016.8 hPa West 3.2 km/h 17.7 km/h 66 % 0.0 mm 578 W/m2
14:55 22.7 °C 15.7 °C 1016.8 hPa WSW 11.3 km/h 17.7 km/h 65 % 0.0 mm 701 W/m2
15:05 24.2 °C 16.4 °C 1016.8 hPa Calm   12.9 km/h 62 % 0.0 mm 835 W/m2
15:15 23.6 °C 15.6 °C 1016.5 hPa WNW 6.4 km/h 17.7 km/h 61 % 0.0 mm 353 W/m2
15:20 23.2 °C 15.7 °C 1016.8 hPa West 8.0 km/h 19.3 km/h 63 % 0.0 mm 353 W/m2
15:25 22.5 °C 15.6 °C 1016.8 hPa West 17.7 km/h 19.3 km/h 65 % 0.0 mm 373 W/m2
15:35 22.9 °C 16.2 °C 1016.8 hPa WSW 9.7 km/h 20.9 km/h 66 % 0.0 mm 824 W/m2
15:40 23.2 °C 16.0 °C 1016.8 hPa West 8.0 km/h 22.5 km/h 64 % 0.0 mm 847 W/m2
15:45 23.1 °C 17.1 °C 1016.8 hPa West 9.7 km/h 22.5 km/h 69 % 0.0 mm 918 W/m2
15:50 23.3 °C 17.0 °C 1016.8 hPa WSW 12.9 km/h 19.3 km/h 68 % 0.0 mm 724 W/m2
15:55 23.3 °C 17.0 °C 1016.8 hPa SW 11.3 km/h 19.3 km/h 68 % 0.0 mm 789 W/m2
16:00 23.4 °C 17.9 °C 1016.8 hPa NW 3.2 km/h 17.7 km/h 71 % 0.0 mm 851 W/m2
16:05 23.2 °C 16.7 °C 1016.8 hPa NW 12.9 km/h 22.5 km/h 67 % 0.0 mm 853 W/m2
16:10 22.9 °C 16.2 °C 1016.8 hPa West 12.9 km/h 24.1 km/h 66 % 0.0 mm 863 W/m2
16:15 22.6 °C 16.1 °C 1016.8 hPa WNW 6.4 km/h 24.1 km/h 67 % 0.0 mm 817 W/m2
16:20 22.8 °C 16.3 °C 1016.8 hPa West 16.1 km/h 25.7 km/h 67 % 0.0 mm 838 W/m2
16:25 22.6 °C 16.6 °C 1016.8 hPa West 12.9 km/h 25.7 km/h 69 % 0.0 mm 828 W/m2
16:30 22.7 °C 16.9 °C 1016.8 hPa WNW 14.5 km/h 24.1 km/h 70 % 0.0 mm 812 W/m2
16:35 22.8 °C 16.6 °C 1016.5 hPa WSW 4.8 km/h 22.5 km/h 68 % 0.0 mm 830 W/m2
16:40 22.7 °C 16.7 °C 1016.8 hPa WNW 16.1 km/h 24.1 km/h 69 % 0.0 mm 772 W/m2
16:45 22.3 °C 16.8 °C 1016.5 hPa West 4.8 km/h 24.1 km/h 71 % 0.0 mm 742 W/m2
16:50 22.5 °C 17.2 °C 1016.5 hPa NW 8.0 km/h 24.1 km/h 72 % 0.0 mm 721 W/m2
16:55 23.3 °C 18.4 °C 1016.5 hPa WNW 9.7 km/h 19.3 km/h 74 % 0.0 mm 715 W/m2
17:00 23.0 °C 16.1 °C 1016.5 hPa NW 9.7 km/h 17.7 km/h 65 % 0.0 mm 668 W/m2
17:05 22.8 °C 16.6 °C 1016.5 hPa NW 8.0 km/h 19.3 km/h 68 % 0.0 mm 693 W/m2
17:10 23.0 °C 16.3 °C 1016.1 hPa West 4.8 km/h 19.3 km/h 66 % 0.0 mm 679 W/m2
17:15 23.8 °C 16.9 °C 1016.1 hPa West 12.9 km/h 19.3 km/h 65 % 0.0 mm 689 W/m2
17:20 23.3 °C 16.8 °C 1016.1 hPa West 6.4 km/h 14.5 km/h 67 % 0.0 mm 605 W/m2
17:25 22.9 °C 16.7 °C 1016.1 hPa WNW 6.4 km/h 14.5 km/h 68 % 0.0 mm 598 W/m2
17:30 22.7 °C 16.5 °C 1016.1 hPa West 8.0 km/h 17.7 km/h 68 % 0.0 mm 622 W/m2
17:35 22.7 °C 16.9 °C 1016.1 hPa West 8.0 km/h 22.5 km/h 70 % 0.0 mm 650 W/m2
17:40 22.8 °C 17.0 °C 1016.1 hPa West 8.0 km/h 22.5 km/h 70 % 0.0 mm 271 W/m2
17:45 22.7 °C 16.7 °C 1016.1 hPa West 12.9 km/h 19.3 km/h 69 % 0.0 mm 294 W/m2
17:50 22.2 °C 16.5 °C 1016.1 hPa NW 8.0 km/h 20.9 km/h 70 % 0.0 mm 272 W/m2
17:55 21.8 °C 15.8 °C 1016.1 hPa NW 8.0 km/h 22.5 km/h 69 % 0.0 mm 262 W/m2
18:00 21.6 °C 15.8 °C 1016.1 hPa WNW 6.4 km/h 24.1 km/h 70 % 0.0 mm 323 W/m2
18:05 21.7 °C 15.8 °C 1016.1 hPa West 6.4 km/h 24.1 km/h 69 % 0.0 mm 237 W/m2
18:10 21.4 °C 15.5 °C 1016.1 hPa WNW 9.7 km/h 20.9 km/h 69 % 0.0 mm 223 W/m2
18:15 21.3 °C 15.8 °C 1016.1 hPa NW 6.4 km/h 20.9 km/h 71 % 0.0 mm 320 W/m2
18:20 21.6 °C 16.1 °C 1016.1 hPa WNW 16.1 km/h 19.3 km/h 71 % 0.0 mm 396 W/m2
18:25 21.6 °C 15.7 °C 1016.1 hPa WNW 14.5 km/h 19.3 km/h 69 % 0.0 mm 269 W/m2
18:35 21.1 °C 15.9 °C 1016.1 hPa West 4.8 km/h 17.7 km/h 72 % 0.0 mm 176 W/m2
18:40 20.9 °C 15.2 °C 1016.1 hPa WNW 6.4 km/h 17.7 km/h 70 % 0.0 mm 197 W/m2
18:45 20.8 °C 15.4 °C 1016.1 hPa WNW 11.3 km/h 17.7 km/h 71 % 0.0 mm 257 W/m2
18:50 21.1 °C 15.6 °C 1016.1 hPa WNW 9.7 km/h 17.7 km/h 71 % 0.0 mm 274 W/m2
18:55 21.3 °C 15.8 °C 1016.1 hPa NW 11.3 km/h 14.5 km/h 71 % 0.0 mm 316 W/m2
19:00 21.4 °C 15.9 °C 1016.1 hPa WNW 9.7 km/h 14.5 km/h 71 % 0.0 mm 230 W/m2
19:05 21.3 °C 16.0 °C 1016.1 hPa WNW 6.4 km/h 14.5 km/h 72 % 0.0 mm 260 W/m2
19:10 21.3 °C 16.0 °C 1016.1 hPa WNW 9.7 km/h 14.5 km/h 72 % 0.0 mm 216 W/m2
19:15 21.2 °C 15.8 °C 1016.1 hPa WNW 6.4 km/h 14.5 km/h 71 % 0.0 mm 229 W/m2
19:20 21.1 °C 15.9 °C 1016.1 hPa West 3.2 km/h 16.1 km/h 72 % 0.0 mm 183 W/m2
19:25 21.1 °C 15.6 °C 1016.1 hPa NNW 14.5 km/h 17.7 km/h 71 % 0.0 mm 179 W/m2
19:30 21.0 °C 15.8 °C 1016.1 hPa NW 6.4 km/h 17.7 km/h 72 % 0.0 mm 160 W/m2
19:35 20.8 °C 15.6 °C 1016.1 hPa WNW 6.4 km/h 19.3 km/h 72 % 0.0 mm 130 W/m2
19:40 20.6 °C 15.6 °C 1016.1 hPa NW 6.4 km/h 19.3 km/h 73 % 0.0 mm 111 W/m2
19:45 20.3 °C 15.5 °C 1016.1 hPa WNW 6.4 km/h 17.7 km/h 74 % 0.0 mm 102 W/m2
19:50 20.2 °C 15.6 °C 1016.1 hPa WNW 9.7 km/h 17.7 km/h 75 % 0.0 mm 93 W/m2
19:55 20.1 °C 15.3 °C 1016.1 hPa NW 3.2 km/h 16.1 km/h 74 % 0.0 mm 114 W/m2
20:00 20.1 °C 15.3 °C 1016.1 hPa West 11.3 km/h 16.1 km/h 74 % 0.0 mm 120 W/m2
20:05 20.2 °C 15.4 °C 1016.5 hPa WNW 4.8 km/h 16.1 km/h 74 % 0.0 mm 135 W/m2
20:10 20.2 °C 15.2 °C 1016.5 hPa WNW 3.2 km/h 16.1 km/h 73 % 0.0 mm 158 W/m2
20:15 20.3 °C 15.5 °C 1016.1 hPa NW 9.7 km/h 17.7 km/h 74 % 0.0 mm 160 W/m2
20:20 20.3 °C 15.3 °C 1016.1 hPa WNW 6.4 km/h 17.7 km/h 73 % 0.0 mm 142 W/m2
20:25 20.2 °C 15.2 °C 1016.1 hPa NW 12.9 km/h 14.5 km/h 73 % 0.0 mm 116 W/m2
20:30 20.1 °C 15.3 °C 1016.1 hPa WNW 6.4 km/h 14.5 km/h 74 % 0.0 mm 114 W/m2
20:40 19.9 °C 15.4 °C 1016.5 hPa WNW 8.0 km/h 12.9 km/h 75 % 0.0 mm 77 W/m2
20:45 19.9 °C 15.6 °C 1016.5 hPa Calm   12.9 km/h 76 % 0.0 mm 79 W/m2
20:50 20.0 °C 15.8 °C 1016.5 hPa WNW 3.2 km/h 11.3 km/h 77 % 0.0 mm 72 W/m2
20:55 19.9 °C 15.5 °C 1016.5 hPa WNW 4.8 km/h 8.0 km/h 76 % 0.0 mm 56 W/m2
21:00 19.8 °C 15.8 °C 1016.5 hPa West 1.6 km/h 8.0 km/h 78 % 0.0 mm 47 W/m2
21:05 19.5 °C 15.8 °C 1016.5 hPa West 3.2 km/h 8.0 km/h 79 % 0.0 mm 42 W/m2
21:10 19.3 °C 15.3 °C 1016.5 hPa WNW 1.6 km/h 8.0 km/h 78 % 0.0 mm 39 W/m2
21:15 19.1 °C 15.1 °C 1016.5 hPa WNW 3.2 km/h 11.3 km/h 78 % 0.0 mm 32 W/m2
21:20 18.9 °C 15.2 °C 1016.5 hPa WNW 6.4 km/h 11.3 km/h 79 % 0.0 mm 30 W/m2
21:25 18.8 °C 15.3 °C 1016.5 hPa WNW 3.2 km/h 9.7 km/h 80 % 0.0 mm 32 W/m2
21:30 18.6 °C 15.2 °C 1016.5 hPa WNW 1.6 km/h 8.0 km/h 81 % 0.0 mm 28 W/m2
21:35 18.7 °C 15.6 °C 1016.5 hPa West 6.4 km/h 8.0 km/h 82 % 0.0 mm 23 W/m2
21:40 18.8 °C 15.9 °C 1016.5 hPa WNW 6.4 km/h 8.0 km/h 83 % 0.0 mm 18 W/m2
21:45 18.8 °C 16.0 °C 1016.5 hPa WNW 8.0 km/h 9.7 km/h 84 % 0.0 mm 14 W/m2
21:50 18.7 °C 16.1 °C 1016.5 hPa WNW 8.0 km/h 12.9 km/h 85 % 0.0 mm 9 W/m2
21:55 18.7 °C 16.3 °C 1016.5 hPa West 4.8 km/h 12.9 km/h 86 % 0.0 mm 5 W/m2
22:00 18.4 °C 16.2 °C 1016.5 hPa West 4.8 km/h 12.9 km/h 87 % 0.0 mm 0 W/m2
22:05 18.3 °C 16.1 °C 1016.5 hPa WNW 6.4 km/h 12.9 km/h 87 % 0.0 mm 0 W/m2
22:10 18.2 °C 16.0 °C 1016.5 hPa WNW 4.8 km/h 9.7 km/h 87 % 0.0 mm 0 W/m2
22:15 18.2 °C 16.1 °C 1016.5 hPa NW 1.6 km/h 9.7 km/h 88 % 0.0 mm 0 W/m2
22:20 18.2 °C 16.1 °C 1016.5 hPa West 6.4 km/h 12.9 km/h 88 % 0.0 mm 0 W/m2
22:25 18.1 °C 16.1 °C 1016.5 hPa WNW 4.8 km/h 12.9 km/h 88 % 0.0 mm 0 W/m2
22:30 18.1 °C 15.9 °C 1016.5 hPa WNW 4.8 km/h 11.3 km/h 87 % 0.0 mm 0 W/m2
22:35 18.0 °C 15.8 °C 1016.5 hPa WNW 4.8 km/h 16.1 km/h 87 % 0.0 mm 0 W/m2
22:40 18.0 °C 15.8 °C 1016.5 hPa WNW 4.8 km/h 16.1 km/h 87 % 0.0 mm 0 W/m2
22:45 17.9 °C 15.7 °C 1016.8 hPa WNW 6.4 km/h 12.9 km/h 87 % 0.0 mm 0 W/m2
22:50 17.9 °C 15.7 °C 1016.8 hPa West 4.8 km/h 12.9 km/h 87 % 0.0 mm 0 W/m2
22:55 17.9 °C 15.9 °C 1016.8 hPa West 3.2 km/h 11.3 km/h 88 % 0.0 mm 0 W/m2
23:00 17.8 °C 15.8 °C 1016.8 hPa NW 4.8 km/h 12.9 km/h 88 % 0.0 mm 0 W/m2
23:05 17.8 °C 15.8 °C 1016.5 hPa WNW 4.8 km/h 14.5 km/h 88 % 0.0 mm 0 W/m2
23:10 17.8 °C 15.8 °C 1016.8 hPa NNW 3.2 km/h 14.5 km/h 88 % 0.0 mm 0 W/m2
23:15 17.8 °C 15.8 °C 1016.8 hPa NW 4.8 km/h 12.9 km/h 88 % 0.0 mm 0 W/m2
23:20 17.8 °C 15.8 °C 1016.5 hPa WNW 3.2 km/h 16.1 km/h 88 % 0.0 mm 0 W/m2
23:25 17.7 °C 15.7 °C 1016.5 hPa NNW 8.0 km/h 16.1 km/h 88 % 0.0 mm 0 W/m2
23:30 17.7 °C 15.7 °C 1016.5 hPa West 8.0 km/h 16.1 km/h 88 % 0.0 mm 0 W/m2
23:35 17.6 °C 15.5 °C 1016.8 hPa NNW 9.7 km/h 16.1 km/h 88 % 0.0 mm 0 W/m2
23:40 17.5 °C 15.5 °C 1016.8 hPa WNW 4.8 km/h 14.5 km/h 88 % 0.0 mm 0 W/m2
23:45 17.4 °C 15.4 °C 1016.8 hPa WNW 4.8 km/h 14.5 km/h 88 % 0.0 mm 0 W/m2
23:50 17.3 °C 15.3 °C 1016.8 hPa WNW 8.0 km/h 14.5 km/h 88 % 0.0 mm 0 W/m2
23:55 17.3 °C 15.5 °C 1016.8 hPa WNW 4.8 km/h 14.5 km/h 89 % 0.0 mm 0 W/m2
Avec l'autorisation de Weather Underground - 1.75 mb